createdAt,value
2022-09-30T00:01:50.791Z,6.50
2022-09-30T00:04:22.055Z,8.97
2022-09-30T00:06:50.500Z,9.40
2022-09-30T00:09:18.035Z,8.57
2022-09-30T00:11:46.834Z,7.33
2022-09-30T00:14:18.336Z,8.20
2022-09-30T00:16:46.130Z,8.07
2022-09-30T00:19:13.732Z,9.23
2022-09-30T00:21:41.507Z,8.83
2022-09-30T00:24:08.807Z,9.03
2022-09-30T00:26:36.507Z,9.60
2022-09-30T00:29:04.856Z,8.30
2022-09-30T00:31:35.371Z,8.30
2022-09-30T00:34:11.607Z,8.17
2022-09-30T00:36:46.331Z,8.50
2022-09-30T00:39:29.235Z,8.47
2022-09-30T00:42:00.957Z,8.13
2022-09-30T00:44:55.549Z,8.30
2022-09-30T00:47:41.260Z,7.80
2022-09-30T00:50:35.311Z,9.53
2022-09-30T00:53:24.014Z,7.73
2022-09-30T00:56:02.591Z,8.50
2022-09-30T00:58:59.789Z,8.17
2022-09-30T01:01:27.715Z,7.43
2022-09-30T01:04:10.161Z,7.67
2022-09-30T01:06:38.133Z,7.07
2022-09-30T01:09:05.288Z,7.40
2022-09-30T01:11:32.659Z,7.13
2022-09-30T01:14:05.664Z,7.63
2022-09-30T01:16:46.612Z,6.57
2022-09-30T01:19:34.538Z,6.97
2022-09-30T01:22:41.913Z,7.73
2022-09-30T01:25:40.072Z,6.17
2022-09-30T01:28:32.509Z,6.60
2022-09-30T01:31:36.214Z,6.13
2022-09-30T01:34:22.195Z,6.30
2022-09-30T01:37:21.033Z,7.00
2022-09-30T01:39:57.896Z,7.73
2022-09-30T01:42:36.414Z,8.23
2022-09-30T01:45:42.183Z,7.90
2022-09-30T01:48:26.107Z,8.20
2022-09-30T01:51:04.434Z,8.13
2022-09-30T01:53:43.770Z,7.80
2022-09-30T01:56:20.433Z,6.67
2022-09-30T01:58:57.289Z,7.70
2022-09-30T02:01:46.984Z,8.03
2022-09-30T02:04:24.351Z,8.70
2022-09-30T02:06:57.123Z,7.47
2022-09-30T02:09:50.599Z,8.13
2022-09-30T02:12:22.506Z,9.40
2022-09-30T02:14:59.889Z,9.03
2022-09-30T02:17:43.191Z,8.20
2022-09-30T02:20:25.426Z,8.93
2022-09-30T02:23:19.504Z,9.27
2022-09-30T02:25:53.580Z,8.90
2022-09-30T02:28:27.750Z,9.00
2022-09-30T02:30:59.746Z,9.83
2022-09-30T02:33:39.297Z,8.90
2022-09-30T02:36:27.734Z,9.70
2022-09-30T02:39:07.055Z,8.90
2022-09-30T02:41:44.110Z,9.70
2022-09-30T02:44:12.087Z,9.90
2022-09-30T02:47:02.815Z,9.43
2022-09-30T02:49:44.091Z,9.10
2022-09-30T02:52:23.152Z,8.17
2022-09-30T02:55:12.927Z,9.37
2022-09-30T02:58:01.471Z,9.73
2022-09-30T03:00:29.601Z,8.40
2022-09-30T03:03:21.812Z,8.37
2022-09-30T03:05:50.891Z,7.93
2022-09-30T03:08:18.600Z,8.97
2022-09-30T03:10:52.948Z,8.20
2022-09-30T03:14:13.067Z,8.63
2022-09-30T03:16:57.980Z,9.30
2022-09-30T03:19:42.283Z,8.23
2022-09-30T03:22:21.435Z,8.60
2022-09-30T03:25:23.852Z,9.47
2022-09-30T03:28:12.633Z,9.43
2022-09-30T03:30:55.593Z,9.50
2022-09-30T03:33:38.254Z,10.07
2022-09-30T03:36:31.432Z,10.90
2022-09-30T03:39:18.373Z,10.87
2022-09-30T03:41:59.101Z,10.00
2022-09-30T03:44:50.658Z,11.27
2022-09-30T03:47:21.205Z,11.70
2022-09-30T03:49:58.517Z,11.70
2022-09-30T03:52:27.197Z,12.43
2022-09-30T03:55:02.849Z,13.93
2022-09-30T03:57:30.890Z,14.23
2022-09-30T03:59:59.009Z,13.87
2022-09-30T04:02:27.359Z,13.10
2022-09-30T04:04:54.422Z,14.80
2022-09-30T04:07:21.407Z,13.47
2022-09-30T04:09:48.511Z,12.40
2022-09-30T04:12:15.592Z,13.77
2022-09-30T04:14:42.639Z,13.17
2022-09-30T04:17:10.596Z,13.30
2022-09-30T04:19:40.189Z,12.57
2022-09-30T04:22:08.493Z,13.97
2022-09-30T04:24:36.385Z,14.30
2022-09-30T04:27:03.647Z,14.40
2022-09-30T04:29:30.674Z,14.00
2022-09-30T04:31:57.964Z,15.20
2022-09-30T04:34:24.972Z,14.47
2022-09-30T04:36:52.227Z,14.30
2022-09-30T04:39:19.189Z,14.17
2022-09-30T04:41:46.833Z,13.57
2022-09-30T04:44:13.926Z,13.00
2022-09-30T04:46:42.863Z,14.80
2022-09-30T04:49:10.039Z,12.53
2022-09-30T04:51:38.440Z,13.10
2022-09-30T04:54:05.684Z,15.33
2022-09-30T04:56:33.033Z,14.03
2022-09-30T04:59:00.134Z,13.20
2022-09-30T05:01:27.105Z,13.40
2022-09-30T05:03:54.847Z,13.30
2022-09-30T05:06:22.245Z,14.80
2022-09-30T05:08:49.168Z,18.53
2022-09-30T05:11:22.308Z,15.87
2022-09-30T05:13:51.109Z,14.80
2022-09-30T05:16:19.067Z,28.20
2022-09-30T05:18:47.280Z,21.50
2022-09-30T05:21:16.814Z,18.43
2022-09-30T05:23:44.387Z,15.83
2022-09-30T05:26:12.779Z,15.33
2022-09-30T05:28:42.093Z,15.17
2022-09-30T05:31:09.506Z,14.30
2022-09-30T05:33:36.780Z,13.63
2022-09-30T05:36:07.201Z,17.30
2022-09-30T05:38:34.743Z,15.83
2022-09-30T05:41:14.345Z,18.67
2022-09-30T05:43:47.861Z,19.07
2022-09-30T05:46:20.334Z,15.30
2022-09-30T05:48:47.665Z,14.40
2022-09-30T05:51:14.938Z,14.43
2022-09-30T05:53:42.201Z,14.63
2022-09-30T05:56:10.606Z,14.10
2022-09-30T05:58:39.773Z,14.20
2022-09-30T06:01:13.496Z,14.73
2022-09-30T06:03:43.171Z,14.33
2022-09-30T06:06:10.753Z,15.20
2022-09-30T06:08:37.771Z,14.57
2022-09-30T06:11:17.541Z,14.43
2022-09-30T06:13:47.271Z,14.90
2022-09-30T06:16:14.745Z,14.57
2022-09-30T06:18:42.482Z,13.87
2022-09-30T06:21:13.195Z,16.60
2022-09-30T06:23:40.673Z,14.80
2022-09-30T06:26:11.784Z,13.20
2022-09-30T06:28:39.503Z,14.20
2022-09-30T06:31:07.330Z,13.90
2022-09-30T06:33:34.974Z,13.47
2022-09-30T06:36:06.273Z,12.33
2022-09-30T06:38:37.435Z,12.50
2022-09-30T06:41:05.924Z,13.20
2022-09-30T06:43:42.777Z,13.70
2022-09-30T06:46:27.226Z,13.77
2022-09-30T06:49:09.654Z,12.87
2022-09-30T06:51:39.553Z,14.00
2022-09-30T06:54:08.024Z,12.47
2022-09-30T06:56:35.676Z,13.97
2022-09-30T06:59:02.622Z,12.97
2022-09-30T07:01:29.976Z,14.47
2022-09-30T07:03:58.231Z,13.23
2022-09-30T07:06:26.356Z,12.43
2022-09-30T07:08:54.246Z,12.40
2022-09-30T07:11:21.437Z,11.73
2022-09-30T07:13:49.310Z,13.03
2022-09-30T07:16:19.458Z,13.43
2022-09-30T07:18:47.321Z,12.67
2022-09-30T07:21:16.616Z,15.50
2022-09-30T07:23:49.828Z,17.33
2022-09-30T07:26:23.540Z,12.17
2022-09-30T07:28:52.149Z,11.70
2022-09-30T07:31:33.419Z,14.47
2022-09-30T07:34:03.856Z,10.67
2022-09-30T07:36:33.569Z,11.77
2022-09-30T07:39:07.546Z,19.00
2022-09-30T07:41:39.111Z,12.90
2022-09-30T07:44:14.363Z,15.30
2022-09-30T07:46:42.923Z,21.17
2022-09-30T07:49:15.992Z,16.53
2022-09-30T07:51:46.360Z,12.40
2022-09-30T07:54:22.551Z,9.30
2022-09-30T07:57:09.228Z,15.60
2022-09-30T07:59:41.221Z,14.13
2022-09-30T08:02:15.156Z,11.07
2022-09-30T08:04:44.310Z,7.60
2022-09-30T08:07:14.771Z,7.73
2022-09-30T08:09:42.499Z,9.00
2022-09-30T08:12:10.044Z,10.07
2022-09-30T08:14:37.261Z,10.07
2022-09-30T08:17:04.702Z,9.27
2022-09-30T08:19:34.511Z,8.37
2022-09-30T08:24:30.057Z,8.90
2022-09-30T08:26:57.079Z,8.77
2022-09-30T08:29:43.015Z,11.70
2022-09-30T08:32:11.836Z,9.03
2022-09-30T08:34:38.843Z,6.80
2022-09-30T08:37:09.173Z,7.90
2022-09-30T08:39:38.568Z,8.27
2022-09-30T08:42:37.132Z,8.37
2022-09-30T08:45:24.266Z,8.57
2022-09-30T08:48:07.161Z,8.23
2022-09-30T08:50:52.550Z,7.67
2022-09-30T08:53:30.478Z,6.93
2022-09-30T08:56:02.538Z,7.40
2022-09-30T08:58:36.068Z,6.63
2022-09-30T09:01:20.043Z,7.43
2022-09-30T09:03:47.383Z,7.37
2022-09-30T09:06:29.285Z,7.27
2022-09-30T09:09:14.299Z,6.77
2022-09-30T09:12:00.527Z,8.13
2022-09-30T09:14:56.955Z,8.17
2022-09-30T09:18:21.522Z,7.23
2022-09-30T09:20:59.870Z,7.73
2022-09-30T09:23:31.343Z,7.10
2022-09-30T09:25:58.770Z,5.37
2022-09-30T09:28:39.334Z,6.90
2022-09-30T09:31:14.141Z,5.50
2022-09-30T09:33:41.229Z,7.30
2022-09-30T09:36:36.808Z,5.93
2022-09-30T09:39:46.374Z,6.07
2022-09-30T09:43:02.646Z,6.90
2022-09-30T09:45:52.446Z,5.20
2022-09-30T09:48:19.543Z,5.63
2022-09-30T09:51:03.917Z,5.33
2022-09-30T09:53:47.265Z,4.60
2022-09-30T09:56:23.251Z,4.60
2022-09-30T09:59:13.636Z,4.43
2022-09-30T10:01:53.822Z,4.20
2022-09-30T10:04:27.781Z,4.30
2022-09-30T10:07:00.029Z,4.57
2022-09-30T10:09:37.650Z,4.10
2022-09-30T10:12:07.479Z,3.97
2022-09-30T10:14:36.975Z,3.73
2022-09-30T10:17:33.279Z,4.80
2022-09-30T10:20:15.299Z,3.57
2022-09-30T10:22:43.425Z,3.57
2022-09-30T10:25:15.982Z,4.20
2022-09-30T10:28:02.747Z,3.90
2022-09-30T10:30:55.592Z,3.83
2022-09-30T10:33:29.000Z,3.83
2022-09-30T10:36:16.487Z,3.70
2022-09-30T10:39:02.729Z,3.33
2022-09-30T10:41:37.193Z,2.80
2022-09-30T10:44:18.245Z,2.97
2022-09-30T10:46:49.257Z,3.30
2022-09-30T10:50:17.406Z,3.97
2022-09-30T10:53:05.828Z,4.00
2022-09-30T10:55:42.159Z,4.30
2022-09-30T10:58:44.685Z,3.60
2022-09-30T11:01:17.632Z,3.93
2022-09-30T11:04:15.052Z,3.67
2022-09-30T11:06:46.217Z,3.83
2022-09-30T11:09:26.936Z,3.87
2022-09-30T11:12:03.386Z,3.20
2022-09-30T11:14:39.886Z,3.37
2022-09-30T11:17:25.891Z,3.50
2022-09-30T11:20:07.125Z,4.33
2022-09-30T11:23:04.263Z,4.30
2022-09-30T11:26:02.908Z,3.53
2022-09-30T11:28:53.029Z,3.40
2022-09-30T11:31:32.590Z,3.20
2022-09-30T11:34:20.720Z,3.90
2022-09-30T11:37:08.805Z,3.20
2022-09-30T11:39:58.420Z,2.97
2022-09-30T11:42:56.157Z,3.27
2022-09-30T11:45:50.025Z,3.07
2022-09-30T11:49:04.049Z,3.17
2022-09-30T11:51:41.565Z,3.33
2022-09-30T11:54:36.533Z,2.70
2022-09-30T11:57:24.598Z,3.00
2022-09-30T12:00:02.042Z,3.10
2022-09-30T12:02:44.681Z,3.00
2022-09-30T12:05:33.389Z,3.17
2022-09-30T12:08:28.696Z,2.70
2022-09-30T12:11:47.995Z,2.73
2022-09-30T12:14:33.893Z,2.20
2022-09-30T12:17:04.981Z,3.10
2022-09-30T12:19:44.400Z,3.57
2022-09-30T12:22:52.999Z,2.77
2022-09-30T12:25:31.962Z,2.37
2022-09-30T12:28:26.472Z,3.23
2022-09-30T12:31:26.953Z,2.50
2022-09-30T12:34:31.919Z,2.27
2022-09-30T12:37:31.017Z,2.23
2022-09-30T12:40:39.529Z,2.20
2022-09-30T12:43:32.812Z,1.80
2022-09-30T12:46:43.310Z,1.83
2022-09-30T12:49:19.864Z,1.67
2022-09-30T12:51:54.459Z,1.60
2022-09-30T12:54:53.817Z,1.63
2022-09-30T12:57:27.691Z,1.40
2022-09-30T13:00:02.089Z,1.50
2022-09-30T13:02:42.828Z,1.70
2022-09-30T13:05:30.773Z,1.70
2022-09-30T13:08:04.066Z,1.53
2022-09-30T13:10:44.497Z,1.50
2022-09-30T13:13:11.428Z,1.50
2022-09-30T13:15:43.611Z,1.47
2022-09-30T13:18:19.680Z,1.50
2022-09-30T13:20:56.798Z,1.60
2022-09-30T13:23:45.034Z,1.80
2022-09-30T13:26:33.818Z,1.40
2022-09-30T13:29:00.888Z,1.50
2022-09-30T13:31:49.833Z,1.47
2022-09-30T13:34:24.135Z,1.10
2022-09-30T13:36:51.214Z,1.47
2022-09-30T13:39:22.901Z,1.57
2022-09-30T13:42:21.002Z,2.33
2022-09-30T13:45:33.855Z,1.60
2022-09-30T13:48:16.203Z,1.80
2022-09-30T13:50:59.759Z,2.20
2022-09-30T13:53:48.939Z,1.83
2022-09-30T13:56:36.268Z,1.40
2022-09-30T13:59:40.358Z,1.97
2022-09-30T14:02:25.472Z,1.60
2022-09-30T14:05:19.572Z,1.87
2022-09-30T14:08:32.020Z,1.50
2022-09-30T14:11:47.497Z,1.80
2022-09-30T14:14:53.642Z,2.17
2022-09-30T14:17:39.932Z,1.73
2022-09-30T14:20:52.934Z,1.63
2022-09-30T14:23:23.216Z,1.50
2022-09-30T14:26:48.601Z,1.70
2022-09-30T14:29:49.050Z,1.77
2022-09-30T14:32:28.613Z,2.10
2022-09-30T14:34:57.177Z,1.47
2022-09-30T14:37:45.654Z,1.63
2022-09-30T14:40:24.901Z,2.00
2022-09-30T14:42:53.206Z,2.20
2022-09-30T14:45:28.993Z,1.57
2022-09-30T14:48:01.952Z,1.93
2022-09-30T14:50:36.319Z,1.70
2022-09-30T14:53:04.593Z,1.60
2022-09-30T14:55:35.644Z,1.60
2022-09-30T14:58:24.528Z,1.47
2022-09-30T15:01:10.927Z,1.70
2022-09-30T15:03:43.148Z,1.40
2022-09-30T15:06:26.015Z,1.53
2022-09-30T15:09:04.068Z,1.40
2022-09-30T15:11:38.802Z,1.30
2022-09-30T15:14:23.617Z,1.33
2022-09-30T15:16:53.244Z,1.40
2022-09-30T15:19:26.264Z,1.17
2022-09-30T15:22:02.497Z,2.13
2022-09-30T15:24:33.304Z,1.30
2022-09-30T15:27:04.867Z,1.30
2022-09-30T15:29:32.120Z,1.40
2022-09-30T15:32:21.739Z,1.27
2022-09-30T15:34:48.888Z,1.70
2022-09-30T15:37:25.759Z,1.07
2022-09-30T15:40:11.415Z,1.60
2022-09-30T15:42:44.382Z,1.37
2022-09-30T15:45:19.979Z,1.50
2022-09-30T15:47:59.092Z,1.47
2022-09-30T15:50:49.580Z,1.43
2022-09-30T15:53:36.361Z,1.17
2022-09-30T15:56:19.610Z,1.40
2022-09-30T15:59:14.587Z,1.20
2022-09-30T16:01:48.641Z,1.27
2022-09-30T16:04:15.545Z,1.17
2022-09-30T16:06:59.592Z,1.50
2022-09-30T16:09:38.262Z,1.47
2022-09-30T16:12:33.784Z,1.10
2022-09-30T16:15:15.429Z,1.20
2022-09-30T16:17:50.142Z,1.10
2022-09-30T16:20:19.579Z,1.40
2022-09-30T16:22:46.475Z,1.03
2022-09-30T16:25:28.861Z,2.37
2022-09-30T16:28:13.525Z,2.67
2022-09-30T16:30:50.630Z,2.43
2022-09-30T16:33:18.393Z,1.70
2022-09-30T16:35:47.455Z,1.57
2022-09-30T16:38:17.737Z,1.43
2022-09-30T16:40:44.908Z,1.10
2022-09-30T16:43:12.165Z,1.47
2022-09-30T16:45:40.527Z,1.83
2022-09-30T16:48:18.529Z,1.57
2022-09-30T16:51:07.764Z,1.27
2022-09-30T16:53:35.116Z,1.10
2022-09-30T16:56:02.417Z,1.03
2022-09-30T16:58:31.295Z,1.17
2022-09-30T17:01:00.561Z,1.47
2022-09-30T17:03:28.114Z,1.10
2022-09-30T17:05:55.265Z,1.27
2022-09-30T17:08:24.257Z,1.37
2022-09-30T17:10:51.476Z,1.50
2022-09-30T17:13:19.322Z,1.53
2022-09-30T17:15:51.574Z,1.40
2022-09-30T17:18:19.790Z,1.90
2022-09-30T17:20:52.680Z,1.73
2022-09-30T17:23:21.963Z,1.70
2022-09-30T17:25:49.343Z,1.60
2022-09-30T17:28:17.157Z,2.07
2022-09-30T17:30:47.748Z,2.17
2022-09-30T17:33:16.045Z,4.30
2022-09-30T17:35:43.080Z,2.97
2022-09-30T17:38:12.983Z,3.47
2022-09-30T17:40:58.948Z,3.87
2022-09-30T17:43:26.043Z,3.57
2022-09-30T17:45:58.744Z,4.03
2022-09-30T17:48:25.879Z,3.90
2022-09-30T17:50:55.809Z,3.50
2022-09-30T17:53:23.286Z,3.63
2022-09-30T17:56:09.249Z,3.87
2022-09-30T17:58:36.654Z,3.50
2022-09-30T18:01:10.457Z,3.80
2022-09-30T18:03:37.538Z,3.07
2022-09-30T18:06:04.817Z,2.80
2022-09-30T18:08:32.206Z,3.60
2022-09-30T18:10:59.145Z,2.23
2022-09-30T18:13:27.704Z,2.50
2022-09-30T18:15:59.134Z,3.10
2022-09-30T18:18:26.142Z,2.93
2022-09-30T18:20:53.025Z,2.33
2022-09-30T18:23:20.297Z,2.00
2022-09-30T18:25:49.698Z,1.77
2022-09-30T18:28:17.218Z,1.60
2022-09-30T18:30:44.463Z,1.60
2022-09-30T18:33:12.233Z,1.63
2022-09-30T18:35:39.694Z,1.70
2022-09-30T18:38:06.943Z,2.33
2022-09-30T18:40:34.542Z,2.73
2022-09-30T18:43:05.266Z,3.07
2022-09-30T18:45:36.609Z,2.80
2022-09-30T18:48:04.358Z,3.00
2022-09-30T18:50:32.695Z,3.30
2022-09-30T18:53:06.788Z,3.73
2022-09-30T18:55:38.421Z,3.47
2022-09-30T18:58:05.814Z,2.90
2022-09-30T19:00:33.011Z,3.10
2022-09-30T19:03:00.072Z,2.73
2022-09-30T19:05:27.392Z,2.67
2022-09-30T19:07:54.839Z,2.07
2022-09-30T19:10:24.350Z,2.47
2022-09-30T19:12:51.965Z,2.90
2022-09-30T19:15:19.414Z,3.27
2022-09-30T19:17:47.213Z,2.73
2022-09-30T19:20:17.886Z,2.13
2022-09-30T19:22:45.543Z,2.50
2022-09-30T19:25:12.909Z,2.83
2022-09-30T19:27:41.598Z,3.77
2022-09-30T19:30:11.845Z,3.90
2022-09-30T19:32:39.826Z,3.13
2022-09-30T19:35:13.516Z,3.20
2022-09-30T19:37:52.071Z,3.13
2022-09-30T19:40:24.867Z,4.50
2022-09-30T19:42:51.896Z,4.27
2022-09-30T19:45:25.947Z,3.87
2022-09-30T19:47:54.196Z,3.63
2022-09-30T19:50:21.442Z,4.37
2022-09-30T19:52:56.731Z,3.97
2022-09-30T19:55:25.943Z,3.90
2022-09-30T19:57:53.133Z,3.53
2022-09-30T20:00:20.370Z,3.80
2022-09-30T20:02:47.332Z,3.77
2022-09-30T20:05:14.686Z,3.80
2022-09-30T20:07:41.865Z,3.20
2022-09-30T20:10:09.241Z,3.90
2022-09-30T20:12:36.300Z,3.43
2022-09-30T20:15:22.090Z,3.57
2022-09-30T20:17:49.166Z,3.27
2022-09-30T20:20:34.636Z,3.40
2022-09-30T20:23:01.718Z,3.37
2022-09-30T20:25:30.096Z,3.20
2022-09-30T20:27:57.445Z,3.27
2022-09-30T20:30:25.083Z,3.90
2022-09-30T20:32:53.204Z,3.53
2022-09-30T20:35:21.740Z,3.13
2022-09-30T20:37:48.960Z,4.07
2022-09-30T20:40:16.150Z,3.73
2022-09-30T20:42:43.662Z,3.60
2022-09-30T20:45:11.611Z,3.17
2022-09-30T20:47:40.246Z,3.10
2022-09-30T20:50:08.226Z,3.40
2022-09-30T20:52:35.344Z,3.40
2022-09-30T20:55:02.361Z,3.63
2022-09-30T20:57:30.334Z,4.30
2022-09-30T20:59:59.943Z,3.73
2022-09-30T21:02:28.146Z,3.27
2022-09-30T21:04:57.853Z,3.60
2022-09-30T21:07:26.377Z,3.80
2022-09-30T21:09:53.504Z,4.23
2022-09-30T21:12:20.457Z,4.13
2022-09-30T21:14:47.754Z,3.20
2022-09-30T21:17:14.934Z,4.10
2022-09-30T21:19:41.852Z,4.33
2022-09-30T21:22:08.812Z,5.10
2022-09-30T21:24:36.252Z,4.73
2022-09-30T21:27:05.917Z,5.20
2022-09-30T21:29:33.448Z,5.00
2022-09-30T21:32:00.849Z,5.00
2022-09-30T21:34:28.217Z,5.30
2022-09-30T21:36:55.172Z,4.77
2022-09-30T21:39:22.290Z,6.17
2022-09-30T21:41:49.223Z,5.80
2022-09-30T21:44:16.925Z,5.47
2022-09-30T21:46:48.557Z,5.77
2022-09-30T21:49:23.879Z,4.67
2022-09-30T21:51:52.895Z,6.03
2022-09-30T21:54:20.743Z,5.13
2022-09-30T21:56:48.545Z,5.77
2022-09-30T21:59:16.045Z,5.43
2022-09-30T22:01:43.140Z,5.90
2022-09-30T22:04:10.390Z,5.13
2022-09-30T22:06:37.291Z,4.80
2022-09-30T22:09:05.383Z,5.30
2022-09-30T22:11:33.221Z,5.37
2022-09-30T22:14:00.884Z,4.93
2022-09-30T22:16:32.062Z,5.30
2022-09-30T22:19:02.564Z,4.83
2022-09-30T22:21:32.786Z,4.50
2022-09-30T22:24:02.145Z,5.50
2022-09-30T22:26:29.715Z,4.40
2022-09-30T22:29:02.016Z,4.33
2022-09-30T22:31:31.977Z,5.33
2022-09-30T22:34:24.292Z,4.10
2022-09-30T22:37:10.626Z,4.63
2022-09-30T22:39:38.050Z,4.67
2022-09-30T22:42:05.250Z,4.57
2022-09-30T22:44:35.634Z,3.73
2022-09-30T22:47:03.321Z,3.70
2022-09-30T22:49:34.361Z,3.33
2022-09-30T22:52:02.143Z,3.23
2022-09-30T22:54:29.715Z,4.20
2022-09-30T22:56:59.264Z,3.43
2022-09-30T22:59:27.697Z,4.30
2022-09-30T23:01:56.677Z,3.60
2022-09-30T23:04:26.915Z,3.80
2022-09-30T23:06:55.552Z,3.47
2022-09-30T23:09:23.627Z,3.27
2022-09-30T23:11:54.553Z,4.10
2022-09-30T23:14:22.202Z,3.80
2022-09-30T23:16:49.847Z,3.10
2022-09-30T23:19:17.890Z,3.40
2022-09-30T23:21:44.845Z,3.00
2022-09-30T23:24:12.333Z,3.70
2022-09-30T23:26:39.791Z,3.27
2022-09-30T23:29:12.138Z,3.23
2022-09-30T23:31:39.798Z,3.07
2022-09-30T23:34:07.570Z,3.50
2022-09-30T23:37:00.312Z,3.40
2022-09-30T23:39:27.326Z,3.13
2022-09-30T23:41:55.273Z,3.53
2022-09-30T23:44:25.021Z,4.60
2022-09-30T23:47:10.126Z,3.80
2022-09-30T23:49:37.574Z,3.17
2022-09-30T23:52:12.917Z,2.83
2022-09-30T23:54:42.308Z,3.43
2022-09-30T23:57:10.573Z,3.50
2022-09-30T23:59:38.506Z,3.03
